sensor_id;sensor_type;location;lat;lon;timestamp;pressure;altitude;pressure_sealevel;temperature;humidity
41254;BME280;26987;59.928;30.306;2023-09-19T00:01:40;101509.06;;;7.54;100.00
41254;BME280;26987;59.928;30.306;2023-09-19T00:04:12;101543.41;;;7.74;100.00
41254;BME280;26987;59.928;30.306;2023-09-19T00:06:41;101547.06;;;7.73;100.00
41254;BME280;26987;59.928;30.306;2023-09-19T00:09:10;101537.91;;;7.67;100.00
41254;BME280;26987;59.928;30.306;2023-09-19T00:11:38;101536.75;;;7.69;100.00
41254;BME280;26987;59.928;30.306;2023-09-19T00:14:07;101536.06;;;7.67;100.00
41254;BME280;26987;59.928;30.306;2023-09-19T00:16:35;101542.41;;;7.66;100.00
41254;BME280;26987;59.928;30.306;2023-09-19T00:19:03;101488.38;;;7.39;100.00
41254;BME280;26987;59.928;30.306;2023-09-19T00:21:36;101546.06;;;7.65;100.00
41254;BME280;26987;59.928;30.306;2023-09-19T00:24:05;101527.41;;;7.57;100.00
41254;BME280;26987;59.928;30.306;2023-09-19T00:26:33;101530.56;;;7.61;100.00
41254;BME280;26987;59.928;30.306;2023-09-19T00:29:01;101524.22;;;7.62;100.00
41254;BME280;26987;59.928;30.306;2023-09-19T00:31:34;101522.91;;;7.57;100.00
41254;BME280;26987;59.928;30.306;2023-09-19T00:34:04;101521.22;;;7.56;100.00
41254;BME280;26987;59.928;30.306;2023-09-19T00:36:38;101530.25;;;7.55;100.00
41254;BME280;26987;59.928;30.306;2023-09-19T00:39:06;101521.56;;;7.53;100.00
41254;BME280;26987;59.928;30.306;2023-09-19T00:41:35;101500.72;;;7.40;100.00
41254;BME280;26987;59.928;30.306;2023-09-19T00:44:03;101521.06;;;7.50;100.00
41254;BME280;26987;59.928;30.306;2023-09-19T00:46:32;101503.56;;;7.39;100.00
41254;BME280;26987;59.928;30.306;2023-09-19T00:49:00;101499.56;;;7.35;100.00
41254;BME280;26987;59.928;30.306;2023-09-19T00:51:28;101519.22;;;7.42;100.00
41254;BME280;26987;59.928;30.306;2023-09-19T00:53:58;101518.06;;;7.44;100.00
41254;BME280;26987;59.928;30.306;2023-09-19T00:56:26;101516.03;;;7.38;100.00
41254;BME280;26987;59.928;30.306;2023-09-19T00:58:54;101517.06;;;7.37;100.00
41254;BME280;26987;59.928;30.306;2023-09-19T01:01:23;101508.38;;;7.35;100.00
41254;BME280;26987;59.928;30.306;2023-09-19T01:03:51;101502.22;;;7.35;100.00
41254;BME280;26987;59.928;30.306;2023-09-19T01:06:20;101486.38;;;7.25;100.00
41254;BME280;26987;59.928;30.306;2023-09-19T01:08:48;101493.88;;;7.29;100.00
41254;BME280;26987;59.928;30.306;2023-09-19T01:11:21;101476.69;;;7.24;100.00
41254;BME280;26987;59.928;30.306;2023-09-19T01:13:58;101478.19;;;7.26;100.00
41254;BME280;26987;59.928;30.306;2023-09-19T01:16:35;101474.53;;;7.19;100.00
41254;BME280;26987;59.928;30.306;2023-09-19T01:21:59;101462.03;;;7.11;100.00
41254;BME280;26987;59.928;30.306;2023-09-19T01:25:03;101454.84;;;7.20;100.00
41254;BME280;26987;59.928;30.306;2023-09-19T01:27:53;101450.03;;;7.15;100.00
41254;BME280;26987;59.928;30.306;2023-09-19T01:30:33;101440.53;;;7.04;100.00
41254;BME280;26987;59.928;30.306;2023-09-19T01:33:05;101433.34;;;7.05;100.00
41254;BME280;26987;59.928;30.306;2023-09-19T01:35:33;101429.03;;;7.04;100.00
41254;BME280;26987;59.928;30.306;2023-09-19T01:38:05;101436.00;;;7.05;100.00
41254;BME280;26987;59.928;30.306;2023-09-19T01:40:41;101431.34;;;7.07;100.00
41254;BME280;26987;59.928;30.306;2023-09-19T01:43:15;101421.34;;;7.01;100.00
41254;BME280;26987;59.928;30.306;2023-09-19T01:45:52;101408.03;;;6.92;100.00
41254;BME280;26987;59.928;30.306;2023-09-19T01:48:38;101399.38;;;6.99;100.00
41254;BME280;26987;59.928;30.306;2023-09-19T01:51:10;101421.03;;;7.04;100.00
41254;BME280;26987;59.928;30.306;2023-09-19T01:53:45;101404.00;;;7.05;100.00
41254;BME280;26987;59.928;30.306;2023-09-19T01:56:24;101393.19;;;7.06;100.00
41254;BME280;26987;59.928;30.306;2023-09-19T01:58:56;101401.84;;;7.09;100.00
41254;BME280;26987;59.928;30.306;2023-09-19T02:01:28;101390.00;;;7.11;100.00
41254;BME280;26987;59.928;30.306;2023-09-19T02:03:58;101386.84;;;7.16;100.00
41254;BME280;26987;59.928;30.306;2023-09-19T02:06:26;101387.34;;;7.19;100.00
41254;BME280;26987;59.928;30.306;2023-09-19T02:08:54;101351.69;;;7.04;100.00
41254;BME280;26987;59.928;30.306;2023-09-19T02:11:22;101379.34;;;7.19;100.00
41254;BME280;26987;59.928;30.306;2023-09-19T02:13:51;101363.34;;;7.11;100.00
41254;BME280;26987;59.928;30.306;2023-09-19T02:16:19;101356.84;;;7.05;100.00
41254;BME280;26987;59.928;30.306;2023-09-19T02:18:49;101365.19;;;7.11;100.00
41254;BME280;26987;59.928;30.306;2023-09-19T02:21:17;101357.69;;;7.06;100.00
41254;BME280;26987;59.928;30.306;2023-09-19T02:23:45;101342.69;;;7.05;100.00
41254;BME280;26987;59.928;30.306;2023-09-19T02:26:13;101308.56;;;6.84;100.00
41254;BME280;26987;59.928;30.306;2023-09-19T02:28:42;101306.22;;;6.89;100.00
41254;BME280;26987;59.928;30.306;2023-09-19T02:31:12;101320.19;;;6.99;100.00
41254;BME280;26987;59.928;30.306;2023-09-19T02:33:40;101322.03;;;6.99;100.00
41254;BME280;26987;59.928;30.306;2023-09-19T02:36:10;101318.69;;;6.97;100.00
41254;BME280;26987;59.928;30.306;2023-09-19T02:38:38;101303.38;;;6.90;100.00
41254;BME280;26987;59.928;30.306;2023-09-19T02:41:06;101308.19;;;7.03;100.00
41254;BME280;26987;59.928;30.306;2023-09-19T02:43:34;101311.00;;;7.10;100.00
41254;BME280;26987;59.928;30.306;2023-09-19T02:46:02;101302.34;;;7.16;100.00
41254;BME280;26987;59.928;30.306;2023-09-19T02:48:30;101307.34;;;7.19;100.00
41254;BME280;26987;59.928;30.306;2023-09-19T02:51:01;101300.16;;;7.20;100.00
41254;BME280;26987;59.928;30.306;2023-09-19T02:53:31;101300.31;;;7.18;100.00
41254;BME280;26987;59.928;30.306;2023-09-19T02:55:59;101288.16;;;7.16;100.00
41254;BME280;26987;59.928;30.306;2023-09-19T02:58:27;101274.50;;;7.19;100.00
41254;BME280;26987;59.928;30.306;2023-09-19T03:00:57;101269.66;;;7.23;100.00
41254;BME280;26987;59.928;30.306;2023-09-19T03:03:25;101261.59;;;7.31;100.00
41254;BME280;26987;59.928;30.306;2023-09-19T03:05:55;101263.44;;;7.39;100.00
41254;BME280;26987;59.928;30.306;2023-09-19T03:08:24;101249.06;;;7.40;100.00
41254;BME280;26987;59.928;30.306;2023-09-19T03:10:54;101268.19;;;7.52;100.00
41254;BME280;26987;59.928;30.306;2023-09-19T03:13:21;101263.34;;;7.55;100.00
41254;BME280;26987;59.928;30.306;2023-09-19T03:15:49;101250.00;;;7.55;100.00
41254;BME280;26987;59.928;30.306;2023-09-19T03:18:21;101247.34;;;7.55;100.00
41254;BME280;26987;59.928;30.306;2023-09-19T03:20:53;101258.81;;;7.64;100.00
41254;BME280;26987;59.928;30.306;2023-09-19T03:23:22;101246.47;;;7.63;100.00
41254;BME280;26987;59.928;30.306;2023-09-19T03:25:51;101255.97;;;7.66;100.00
41254;BME280;26987;59.928;30.306;2023-09-19T03:28:20;101223.78;;;7.59;100.00
41254;BME280;26987;59.928;30.306;2023-09-19T03:30:58;101232.06;;;7.73;100.00
41254;BME280;26987;59.928;30.306;2023-09-19T03:33:27;101229.94;;;7.68;100.00
41254;BME280;26987;59.928;30.306;2023-09-19T03:35:59;101219.44;;;7.66;100.00
41254;BME280;26987;59.928;30.306;2023-09-19T03:38:27;101216.28;;;7.63;100.00
41254;BME280;26987;59.928;30.306;2023-09-19T03:40:56;101210.09;;;7.62;100.00
41254;BME280;26987;59.928;30.306;2023-09-19T03:43:25;101196.94;;;7.61;100.00
41254;BME280;26987;59.928;30.306;2023-09-19T03:45:53;101195.63;;;7.56;100.00
41254;BME280;26987;59.928;30.306;2023-09-19T03:48:22;101189.09;;;7.59;100.00
41254;BME280;26987;59.928;30.306;2023-09-19T03:50:51;101185.78;;;7.57;100.00
41254;BME280;26987;59.928;30.306;2023-09-19T03:53:23;101187.09;;;7.61;100.00
41254;BME280;26987;59.928;30.306;2023-09-19T03:55:51;101169.25;;;7.62;100.00
41254;BME280;26987;59.928;30.306;2023-09-19T03:58:19;101163.38;;;7.66;100.00
41254;BME280;26987;59.928;30.306;2023-09-19T04:00:48;101159.97;;;7.73;100.00
41254;BME280;26987;59.928;30.306;2023-09-19T04:03:17;101055.53;;;7.05;100.00
41254;BME280;26987;59.928;30.306;2023-09-19T04:05:47;101140.44;;;7.57;100.00
41254;BME280;26987;59.928;30.306;2023-09-19T04:08:16;101143.69;;;7.67;100.00
41254;BME280;26987;59.928;30.306;2023-09-19T04:10:43;101138.84;;;7.71;100.00
41254;BME280;26987;59.928;30.306;2023-09-19T04:13:11;101103.53;;;7.61;100.00
41254;BME280;26987;59.928;30.306;2023-09-19T04:15:39;101121.91;;;7.79;100.00
41254;BME280;26987;59.928;30.306;2023-09-19T04:18:09;101123.50;;;7.88;100.00
41254;BME280;26987;59.928;30.306;2023-09-19T04:20:37;101090.53;;;7.81;100.00
41254;BME280;26987;59.928;30.306;2023-09-19T04:23:05;101111.28;;;7.94;100.00
41254;BME280;26987;59.928;30.306;2023-09-19T04:25:33;101110.09;;;7.97;100.00
41254;BME280;26987;59.928;30.306;2023-09-19T04:28:01;101100.13;;;7.90;100.00
41254;BME280;26987;59.928;30.306;2023-09-19T04:30:30;101092.41;;;7.95;100.00
41254;BME280;26987;59.928;30.306;2023-09-19T04:32:58;101088.75;;;7.97;100.00
41254;BME280;26987;59.928;30.306;2023-09-19T04:35:29;101086.53;;;8.00;100.00
41254;BME280;26987;59.928;30.306;2023-09-19T04:37:58;101067.38;;;7.97;100.00
41254;BME280;26987;59.928;30.306;2023-09-19T04:40:33;101070.22;;;7.95;100.00
41254;BME280;26987;59.928;30.306;2023-09-19T04:43:01;101069.97;;;8.05;100.00
41254;BME280;26987;59.928;30.306;2023-09-19T04:45:30;101063.16;;;8.17;100.00
41254;BME280;26987;59.928;30.306;2023-09-19T04:47:58;101047.22;;;8.24;100.00
41254;BME280;26987;59.928;30.306;2023-09-19T04:50:26;101050.72;;;8.25;100.00
41254;BME280;26987;59.928;30.306;2023-09-19T04:52:55;101065.56;;;8.42;100.00
41254;BME280;26987;59.928;30.306;2023-09-19T04:55:23;101054.31;;;8.47;100.00
41254;BME280;26987;59.928;30.306;2023-09-19T04:57:51;101045.75;;;8.52;100.00
41254;BME280;26987;59.928;30.306;2023-09-19T05:00:21;101055.53;;;8.75;99.95
41254;BME280;26987;59.928;30.306;2023-09-19T05:02:50;101053.66;;;8.75;99.67
41254;BME280;26987;59.928;30.306;2023-09-19T05:05:18;101049.63;;;8.79;99.66
41254;BME280;26987;59.928;30.306;2023-09-19T05:07:47;101050.44;;;8.80;99.29
41254;BME280;26987;59.928;30.306;2023-09-19T05:10:16;101044.53;;;9.21;97.39
41254;BME280;26987;59.928;30.306;2023-09-19T05:12:45;101036.38;;;9.30;96.45
41254;BME280;26987;59.928;30.306;2023-09-19T05:15:14;101032.63;;;9.24;96.42
41254;BME280;26987;59.928;30.306;2023-09-19T05:17:48;101022.59;;;9.33;96.27
41254;BME280;26987;59.928;30.306;2023-09-19T05:20:16;101023.00;;;10.09;93.01
41254;BME280;26987;59.928;30.306;2023-09-19T05:22:47;101023.31;;;10.28;90.82
41254;BME280;26987;59.928;30.306;2023-09-19T05:25:18;101021.84;;;10.60;89.16
41254;BME280;26987;59.928;30.306;2023-09-19T05:27:46;101017.03;;;11.05;86.84
41254;BME280;26987;59.928;30.306;2023-09-19T05:30:14;101003.81;;;11.03;86.18
41254;BME280;26987;59.928;30.306;2023-09-19T05:32:42;101014.47;;;10.83;86.95
41254;BME280;26987;59.928;30.306;2023-09-19T05:35:10;101006.78;;;10.59;88.38
41254;BME280;26987;59.928;30.306;2023-09-19T05:37:39;101003.25;;;10.59;88.82
41254;BME280;26987;59.928;30.306;2023-09-19T05:40:08;100988.59;;;11.31;85.15
41254;BME280;26987;59.928;30.306;2023-09-19T05:42:38;100984.44;;;11.62;84.89
41254;BME280;26987;59.928;30.306;2023-09-19T05:45:08;100986.19;;;12.36;81.05
41254;BME280;26987;59.928;30.306;2023-09-19T05:47:38;100969.28;;;13.58;75.61
41254;BME280;26987;59.928;30.306;2023-09-19T05:50:09;100961.22;;;14.33;71.54
41254;BME280;26987;59.928;30.306;2023-09-19T05:52:37;100977.84;;;15.10;67.90
41254;BME280;26987;59.928;30.306;2023-09-19T05:55:05;100953.94;;;15.49;65.84
41254;BME280;26987;59.928;30.306;2023-09-19T05:57:34;100949.81;;;15.59;64.93
41254;BME280;26987;59.928;30.306;2023-09-19T06:00:04;100964.84;;;16.02;63.97
41254;BME280;26987;59.928;30.306;2023-09-19T06:02:38;100958.34;;;16.27;62.10
41254;BME280;26987;59.928;30.306;2023-09-19T06:05:07;100965.28;;;16.23;62.47
41254;BME280;26987;59.928;30.306;2023-09-19T06:07:37;100945.59;;;16.40;61.51
41254;BME280;26987;59.928;30.306;2023-09-19T06:10:05;100956.03;;;16.48;61.09
41254;BME280;26987;59.928;30.306;2023-09-19T06:12:33;100949.06;;;16.52;61.35
41254;BME280;26987;59.928;30.306;2023-09-19T06:15:07;100952.44;;;16.60;61.95
41254;BME280;26987;59.928;30.306;2023-09-19T06:17:39;100937.44;;;16.69;61.03
41254;BME280;26987;59.928;30.306;2023-09-19T06:20:07;100937.56;;;16.45;61.83
41254;BME280;26987;59.928;30.306;2023-09-19T06:22:39;100934.31;;;16.31;62.63
41254;BME280;26987;59.928;30.306;2023-09-19T06:25:08;100914.78;;;16.00;63.99
41254;BME280;26987;59.928;30.306;2023-09-19T06:27:39;100919.22;;;15.94;64.73
41254;BME280;26987;59.928;30.306;2023-09-19T06:30:11;100918.31;;;15.88;65.86
41254;BME280;26987;59.928;30.306;2023-09-19T06:32:39;100912.13;;;15.52;66.71
41254;BME280;26987;59.928;30.306;2023-09-19T06:35:10;100910.72;;;15.49;67.38
41254;BME280;26987;59.928;30.306;2023-09-19T06:37:39;100908.13;;;15.31;68.50
41254;BME280;26987;59.928;30.306;2023-09-19T06:40:09;100896.47;;;15.06;70.14
41254;BME280;26987;59.928;30.306;2023-09-19T06:42:40;100891.91;;;15.07;70.28
41254;BME280;26987;59.928;30.306;2023-09-19T06:45:11;100905.66;;;15.17;70.46
41254;BME280;26987;59.928;30.306;2023-09-19T06:47:39;100895.44;;;14.95;71.13
41254;BME280;26987;59.928;30.306;2023-09-19T06:50:08;100896.47;;;14.94;71.34
41254;BME280;26987;59.928;30.306;2023-09-19T06:52:40;100895.41;;;14.83;72.28
41254;BME280;26987;59.928;30.306;2023-09-19T06:55:08;100890.53;;;14.73;73.63
41254;BME280;26987;59.928;30.306;2023-09-19T06:57:36;100881.09;;;14.95;73.01
41254;BME280;26987;59.928;30.306;2023-09-19T07:00:05;100876.50;;;14.83;74.12
41254;BME280;26987;59.928;30.306;2023-09-19T07:02:37;100858.94;;;14.62;74.87
41254;BME280;26987;59.928;30.306;2023-09-19T07:05:05;100864.47;;;14.67;74.83
41254;BME280;26987;59.928;30.306;2023-09-19T07:07:33;100853.66;;;14.67;75.32
41254;BME280;26987;59.928;30.306;2023-09-19T07:10:01;100861.28;;;14.70;75.72
41254;BME280;26987;59.928;30.306;2023-09-19T07:12:30;100849.69;;;14.70;75.85
41254;BME280;26987;59.928;30.306;2023-09-19T07:14:58;100847.69;;;14.65;76.06
41254;BME280;26987;59.928;30.306;2023-09-19T07:17:28;100848.72;;;14.64;76.53
41254;BME280;26987;59.928;30.306;2023-09-19T07:19:57;100852.75;;;14.73;76.82
41254;BME280;26987;59.928;30.306;2023-09-19T07:22:26;100863.81;;;14.84;76.67
41254;BME280;26987;59.928;30.306;2023-09-19T07:24:54;100815.19;;;14.60;76.64
41254;BME280;26987;59.928;30.306;2023-09-19T07:27:22;100843.53;;;14.50;77.79
41254;BME280;26987;59.928;30.306;2023-09-19T07:29:49;100850.78;;;14.38;79.24
41254;BME280;26987;59.928;30.306;2023-09-19T07:32:17;100843.66;;;14.13;80.75
41254;BME280;26987;59.928;30.306;2023-09-19T07:34:46;100840.00;;;14.07;81.90
41254;BME280;26987;59.928;30.306;2023-09-19T07:37:15;100841.75;;;14.02;82.66
41254;BME280;26987;59.928;30.306;2023-09-19T07:39:43;100833.91;;;14.12;82.49
41254;BME280;26987;59.928;30.306;2023-09-19T07:42:11;100824.50;;;14.33;82.01
41254;BME280;26987;59.928;30.306;2023-09-19T07:44:43;100817.00;;;14.35;82.38
41254;BME280;26987;59.928;30.306;2023-09-19T07:47:13;100819.91;;;14.34;82.52
41254;BME280;26987;59.928;30.306;2023-09-19T07:49:41;100767.09;;;14.02;82.98
41254;BME280;26987;59.928;30.306;2023-09-19T07:52:09;100813.72;;;14.33;83.52
41254;BME280;26987;59.928;30.306;2023-09-19T07:54:40;100803.38;;;14.30;84.02
41254;BME280;26987;59.928;30.306;2023-09-19T07:57:07;100792.13;;;14.21;84.21
41254;BME280;26987;59.928;30.306;2023-09-19T07:59:35;100795.06;;;14.32;84.51
41254;BME280;26987;59.928;30.306;2023-09-19T08:02:04;100785.44;;;14.24;85.07
41254;BME280;26987;59.928;30.306;2023-09-19T08:04:34;100778.41;;;14.23;85.44
41254;BME280;26987;59.928;30.306;2023-09-19T08:07:03;100770.78;;;14.32;85.56
41254;BME280;26987;59.928;30.306;2023-09-19T08:09:31;100766.59;;;14.48;85.13
41254;BME280;26987;59.928;30.306;2023-09-19T08:12:02;100771.66;;;14.44;86.05
41254;BME280;26987;59.928;30.306;2023-09-19T08:14:32;100763.56;;;14.44;86.03
41254;BME280;26987;59.928;30.306;2023-09-19T08:17:00;100775.88;;;14.52;86.46
41254;BME280;26987;59.928;30.306;2023-09-19T08:19:28;100768.25;;;14.61;86.70
41254;BME280;26987;59.928;30.306;2023-09-19T08:21:55;100773.41;;;14.74;85.90
41254;BME280;26987;59.928;30.306;2023-09-19T08:24:25;100769.34;;;14.84;85.77
41254;BME280;26987;59.928;30.306;2023-09-19T08:26:55;100777.22;;;14.97;85.41
41254;BME280;26987;59.928;30.306;2023-09-19T08:29:25;100768.88;;;15.11;85.05
41254;BME280;26987;59.928;30.306;2023-09-19T08:31:54;100768.75;;;15.18;84.92
41254;BME280;26987;59.928;30.306;2023-09-19T08:34:22;100764.88;;;15.13;84.91
41254;BME280;26987;59.928;30.306;2023-09-19T08:36:51;100761.81;;;15.22;85.11
41254;BME280;26987;59.928;30.306;2023-09-19T08:39:19;100746.16;;;15.36;84.52
41254;BME280;26987;59.928;30.306;2023-09-19T08:41:46;100747.19;;;15.47;84.68
41254;BME280;26987;59.928;30.306;2023-09-19T08:44:14;100741.59;;;15.66;83.76
41254;BME280;26987;59.928;30.306;2023-09-19T08:46:44;100725.38;;;15.95;82.75
41254;BME280;26987;59.928;30.306;2023-09-19T08:49:19;100735.84;;;16.55;81.16
41254;BME280;26987;59.928;30.306;2023-09-19T08:51:53;100713.88;;;16.90;79.36
41254;BME280;26987;59.928;30.306;2023-09-19T08:54:29;100720.91;;;17.31;77.97
41254;BME280;26987;59.928;30.306;2023-09-19T08:57:02;100718.25;;;17.59;76.91
41254;BME280;26987;59.928;30.306;2023-09-19T08:59:35;100715.34;;;17.65;76.90
41254;BME280;26987;59.928;30.306;2023-09-19T09:02:11;100702.09;;;17.69;77.44
41254;BME280;26987;59.928;30.306;2023-09-19T09:04:40;100690.94;;;17.65;76.72
41254;BME280;26987;59.928;30.306;2023-09-19T09:07:10;100680.00;;;17.55;77.75
41254;BME280;26987;59.928;30.306;2023-09-19T09:09:39;100679.69;;;17.51;78.40
41254;BME280;26987;59.928;30.306;2023-09-19T09:12:11;100682.78;;;17.65;78.43
41254;BME280;26987;59.928;30.306;2023-09-19T09:14:40;100635.84;;;17.32;78.60
41254;BME280;26987;59.928;30.306;2023-09-19T09:17:08;100663.41;;;17.79;78.10
41254;BME280;26987;59.928;30.306;2023-09-19T09:19:37;100652.63;;;17.84;77.89
41254;BME280;26987;59.928;30.306;2023-09-19T09:22:07;100649.13;;;17.89;77.86
41254;BME280;26987;59.928;30.306;2023-09-19T09:24:35;100616.06;;;17.59;78.16
41254;BME280;26987;59.928;30.306;2023-09-19T09:27:06;100645.09;;;17.64;79.35
41254;BME280;26987;59.928;30.306;2023-09-19T09:29:44;100627.78;;;17.65;80.13
41254;BME280;26987;59.928;30.306;2023-09-19T09:32:24;100639.78;;;17.74;80.14
41254;BME280;26987;59.928;30.306;2023-09-19T09:34:54;100622.63;;;17.63;81.07
41254;BME280;26987;59.928;30.306;2023-09-19T09:37:23;100586.88;;;17.39;81.67
41254;BME280;26987;59.928;30.306;2023-09-19T09:39:53;100614.25;;;17.70;81.66
41254;BME280;26987;59.928;30.306;2023-09-19T09:42:30;100604.59;;;17.80;82.32
41254;BME280;26987;59.928;30.306;2023-09-19T09:45:16;100606.34;;;18.01;81.24
41254;BME280;26987;59.928;30.306;2023-09-19T09:47:45;100595.16;;;17.87;81.79
41254;BME280;26987;59.928;30.306;2023-09-19T09:50:29;100593.28;;;17.93;81.91
41254;BME280;26987;59.928;30.306;2023-09-19T09:53:19;100608.97;;;18.19;81.90
41254;BME280;26987;59.928;30.306;2023-09-19T09:56:01;100611.41;;;18.25;81.62
41254;BME280;26987;59.928;30.306;2023-09-19T09:58:32;100603.00;;;18.22;81.72
41254;BME280;26987;59.928;30.306;2023-09-19T10:01:02;100593.00;;;18.27;81.80
41254;BME280;26987;59.928;30.306;2023-09-19T10:03:36;100587.31;;;18.29;81.57
41254;BME280;26987;59.928;30.306;2023-09-19T10:06:10;100553.09;;;18.23;81.43
41254;BME280;26987;59.928;30.306;2023-09-19T10:08:58;100584.75;;;18.60;81.30
41254;BME280;26987;59.928;30.306;2023-09-19T10:11:32;100569.81;;;18.58;81.53
41254;BME280;26987;59.928;30.306;2023-09-19T10:14:07;100573.91;;;18.65;82.13
41254;BME280;26987;59.928;30.306;2023-09-19T10:16:45;100575.31;;;18.78;81.23
41254;BME280;26987;59.928;30.306;2023-09-19T10:19:16;100574.78;;;18.82;81.29
41254;BME280;26987;59.928;30.306;2023-09-19T10:21:53;100560.66;;;18.85;81.60
41254;BME280;26987;59.928;30.306;2023-09-19T10:24:23;100556.31;;;18.78;81.66
41254;BME280;26987;59.928;30.306;2023-09-19T10:26:51;100552.53;;;18.85;82.02
41254;BME280;26987;59.928;30.306;2023-09-19T10:29:21;100559.59;;;18.96;82.70
41254;BME280;26987;59.928;30.306;2023-09-19T10:31:52;100550.91;;;18.99;82.79
41254;BME280;26987;59.928;30.306;2023-09-19T10:34:20;100543.63;;;19.10;82.43
41254;BME280;26987;59.928;30.306;2023-09-19T10:36:52;100524.38;;;19.17;82.07
41254;BME280;26987;59.928;30.306;2023-09-19T10:39:20;100529.25;;;19.25;82.56
41254;BME280;26987;59.928;30.306;2023-09-19T10:41:51;100516.47;;;19.31;82.46
41254;BME280;26987;59.928;30.306;2023-09-19T10:44:25;100515.41;;;19.43;81.44
41254;BME280;26987;59.928;30.306;2023-09-19T10:46:55;100514.59;;;19.42;82.02
41254;BME280;26987;59.928;30.306;2023-09-19T10:49:23;100508.59;;;19.45;81.98
41254;BME280;26987;59.928;30.306;2023-09-19T10:51:55;100507.53;;;19.41;82.42
41254;BME280;26987;59.928;30.306;2023-09-19T10:54:27;100487.41;;;19.32;83.34
41254;BME280;26987;59.928;30.306;2023-09-19T10:56:56;100495.56;;;19.52;82.76
41254;BME280;26987;59.928;30.306;2023-09-19T10:59:25;100496.09;;;19.65;82.22
41254;BME280;26987;59.928;30.306;2023-09-19T11:01:58;100500.97;;;19.68;82.49
41254;BME280;26987;59.928;30.306;2023-09-19T11:04:29;100487.66;;;19.66;83.19
41254;BME280;26987;59.928;30.306;2023-09-19T11:07:08;100489.81;;;19.75;83.18
41254;BME280;26987;59.928;30.306;2023-09-19T11:09:46;100487.88;;;19.81;82.95
41254;BME280;26987;59.928;30.306;2023-09-19T11:18:53;100478.66;;;20.58;80.31
41254;BME280;26987;59.928;30.306;2023-09-19T11:21:53;100475.56;;;20.75;79.79
41254;BME280;26987;59.928;30.306;2023-09-19T11:24:31;100469.56;;;20.73;79.46
41254;BME280;26987;59.928;30.306;2023-09-19T11:27:13;100473.34;;;20.83;79.47
41254;BME280;26987;59.928;30.306;2023-09-19T11:29:44;100461.41;;;20.68;79.37
41254;BME280;26987;59.928;30.306;2023-09-19T11:32:11;100465.22;;;20.72;79.04
41254;BME280;26987;59.928;30.306;2023-09-19T11:34:44;100445.19;;;20.52;79.45
41254;BME280;26987;59.928;30.306;2023-09-19T11:40:38;100459.38;;;20.44;80.30
41254;BME280;26987;59.928;30.306;2023-09-19T11:43:28;100459.16;;;20.40;80.70
41254;BME280;26987;59.928;30.306;2023-09-19T11:46:06;100449.66;;;20.33;81.29
41254;BME280;26987;59.928;30.306;2023-09-19T11:48:40;100447.91;;;20.52;79.84
41254;BME280;26987;59.928;30.306;2023-09-19T11:51:18;100433.28;;;20.38;80.34
41254;BME280;26987;59.928;30.306;2023-09-19T11:53:54;100454.44;;;20.51;80.24
41254;BME280;26987;59.928;30.306;2023-09-19T11:56:25;100445.19;;;20.52;80.47
41254;BME280;26987;59.928;30.306;2023-09-19T11:58:55;100441.09;;;20.50;80.29
41254;BME280;26987;59.928;30.306;2023-09-19T12:01:29;100438.16;;;20.41;80.84
41254;BME280;26987;59.928;30.306;2023-09-19T12:03:59;100404.84;;;20.09;80.87
41254;BME280;26987;59.928;30.306;2023-09-19T12:06:29;100426.25;;;20.32;80.92
41254;BME280;26987;59.928;30.306;2023-09-19T12:08:59;100431.13;;;20.35;81.19
41254;BME280;26987;59.928;30.306;2023-09-19T12:11:41;100420.81;;;20.32;81.92
41254;BME280;26987;59.928;30.306;2023-09-19T12:14:10;100421.88;;;20.31;81.37
41254;BME280;26987;59.928;30.306;2023-09-19T12:16:38;100420.00;;;20.26;81.54
41254;BME280;26987;59.928;30.306;2023-09-19T12:19:18;100415.09;;;20.33;81.95
41254;BME280;26987;59.928;30.306;2023-09-19T12:21:54;100416.16;;;20.32;81.86
41254;BME280;26987;59.928;30.306;2023-09-19T12:24:23;100412.88;;;20.35;81.03
41254;BME280;26987;59.928;30.306;2023-09-19T12:27:00;100401.72;;;20.37;81.19
41254;BME280;26987;59.928;30.306;2023-09-19T12:29:28;100411.69;;;20.52;80.42
41254;BME280;26987;59.928;30.306;2023-09-19T12:31:57;100411.97;;;20.56;80.40
41254;BME280;26987;59.928;30.306;2023-09-19T12:34:27;100407.56;;;20.60;79.77
41254;BME280;26987;59.928;30.306;2023-09-19T12:37:08;100388.59;;;20.49;80.13
41254;BME280;26987;59.928;30.306;2023-09-19T12:39:43;100387.28;;;20.36;80.13
41254;BME280;26987;59.928;30.306;2023-09-19T12:42:17;100384.28;;;20.38;80.24
41254;BME280;26987;59.928;30.306;2023-09-19T12:44:49;100387.53;;;20.40;79.91
41254;BME280;26987;59.928;30.306;2023-09-19T12:47:23;100385.03;;;20.49;79.97
41254;BME280;26987;59.928;30.306;2023-09-19T12:50:12;100387.94;;;20.63;80.18
41254;BME280;26987;59.928;30.306;2023-09-19T12:52:45;100389.63;;;20.59;79.75
41254;BME280;26987;59.928;30.306;2023-09-19T12:55:22;100377.63;;;20.60;79.77
41254;BME280;26987;59.928;30.306;2023-09-19T12:58:07;100372.09;;;20.65;80.07
41254;BME280;26987;59.928;30.306;2023-09-19T13:00:37;100365.13;;;20.53;80.06
41254;BME280;26987;59.928;30.306;2023-09-19T13:03:18;100326.53;;;20.41;80.50
41254;BME280;26987;59.928;30.306;2023-09-19T13:05:52;100346.13;;;20.48;80.41
41254;BME280;26987;59.928;30.306;2023-09-19T13:08:24;100352.44;;;20.38;81.23
41254;BME280;26987;59.928;30.306;2023-09-19T13:11:06;100239.88;;;19.73;81.47
41254;BME280;26987;59.928;30.306;2023-09-19T13:13:42;100327.19;;;20.27;82.01